Capitol Logistics 7344

Operating for MZN



KSKF
Kelly Field Airport
San Antonio, Texas
KBWI
Baltimore/Washington International Thurgood Marshall Airport
Baltimore, Maryland

Activity Log

Date Flight Route Aircraft Duration
No Flights Yet

Route Details

Aircraft Information
Primary: Boeing 737-800BCF
Backup: Boeing 757-200SF
Route Data
Distance: 1233nm
Duration: 2h 43m
Recm'd Route: CHURN Q56 BLUMS IAH J29 ELD Q32 BNA J42 BKW RAVNN6
Origin Wx: KSKF 180256Z AUTO 02012KT 10SM CLR 15/05 A3009 RMK AO2 SLP188 T01450053 52030 $
Dest. Wx: KBWI 180254Z 00000KT 10SM FEW110 SCT200 10/03 A2986 RMK AO2 SLP111 T01000033 51012
Notes: